sensor_id;sensor_type;location;lat;lon;timestamp;P1;durP1;ratioP1;P2;durP2;ratioP2
46290;SDS011;32023;44.444;26.006;2023-04-28T00:01:46;11.38;;;4.90;;
46290;SDS011;32023;44.444;26.006;2023-04-28T00:04:13;11.13;;;5.05;;
46290;SDS011;32023;44.444;26.006;2023-04-28T00:06:41;12.05;;;4.85;;
46290;SDS011;32023;44.444;26.006;2023-04-28T00:09:08;9.48;;;4.22;;
46290;SDS011;32023;44.444;26.006;2023-04-28T00:11:39;11.52;;;5.35;;
46290;SDS011;32023;44.444;26.006;2023-04-28T00:14:20;14.68;;;5.60;;
46290;SDS011;32023;44.444;26.006;2023-04-28T00:16:58;14.32;;;6.40;;
46290;SDS011;32023;44.444;26.006;2023-04-28T00:19:28;12.80;;;4.82;;
46290;SDS011;32023;44.444;26.006;2023-04-28T00:21:54;10.45;;;4.50;;
46290;SDS011;32023;44.444;26.006;2023-04-28T00:24:26;10.00;;;4.18;;
46290;SDS011;32023;44.444;26.006;2023-04-28T00:26:57;13.90;;;4.80;;
46290;SDS011;32023;44.444;26.006;2023-04-28T00:31:56;9.77;;;4.82;;
46290;SDS011;32023;44.444;26.006;2023-04-28T00:34:23;8.07;;;4.60;;
46290;SDS011;32023;44.444;26.006;2023-04-28T00:36:52;9.77;;;4.60;;
46290;SDS011;32023;44.444;26.006;2023-04-28T00:39:28;10.13;;;5.05;;
46290;SDS011;32023;44.444;26.006;2023-04-28T00:41:54;7.47;;;4.88;;
46290;SDS011;32023;44.444;26.006;2023-04-28T00:44:21;14.95;;;6.63;;
46290;SDS011;32023;44.444;26.006;2023-04-28T00:46:48;24.35;;;9.68;;
46290;SDS011;32023;44.444;26.006;2023-04-28T00:51:45;18.30;;;7.88;;
46290;SDS011;32023;44.444;26.006;2023-04-28T00:54:20;15.50;;;7.28;;
46290;SDS011;32023;44.444;26.006;2023-04-28T00:56:46;16.70;;;7.82;;
46290;SDS011;32023;44.444;26.006;2023-04-28T00:59:27;16.30;;;6.47;;
46290;SDS011;32023;44.444;26.006;2023-04-28T01:01:57;11.00;;;5.82;;
46290;SDS011;32023;44.444;26.006;2023-04-28T01:07:48;11.65;;;5.68;;
46290;SDS011;32023;44.444;26.006;2023-04-28T01:10:14;11.00;;;6.35;;
46290;SDS011;32023;44.444;26.006;2023-04-28T01:12:41;12.40;;;5.75;;
46290;SDS011;32023;44.444;26.006;2023-04-28T01:15:11;11.05;;;5.38;;
46290;SDS011;32023;44.444;26.006;2023-04-28T01:17:43;14.27;;;5.88;;
46290;SDS011;32023;44.444;26.006;2023-04-28T01:20:13;15.05;;;5.80;;
46290;SDS011;32023;44.444;26.006;2023-04-28T01:22:42;13.55;;;6.07;;
46290;SDS011;32023;44.444;26.006;2023-04-28T01:25:09;9.60;;;5.50;;
46290;SDS011;32023;44.444;26.006;2023-04-28T01:27:35;13.18;;;5.35;;
46290;SDS011;32023;44.444;26.006;2023-04-28T01:30:01;15.07;;;5.90;;
46290;SDS011;32023;44.444;26.006;2023-04-28T01:32:28;14.25;;;6.28;;
46290;SDS011;32023;44.444;26.006;2023-04-28T01:34:54;12.02;;;5.50;;
46290;SDS011;32023;44.444;26.006;2023-04-28T01:37:21;13.30;;;5.70;;
46290;SDS011;32023;44.444;26.006;2023-04-28T01:39:48;7.50;;;5.18;;
46290;SDS011;32023;44.444;26.006;2023-04-28T01:42:15;9.38;;;5.35;;
46290;SDS011;32023;44.444;26.006;2023-04-28T01:44:41;8.10;;;5.65;;
46290;SDS011;32023;44.444;26.006;2023-04-28T01:47:10;10.85;;;5.38;;
46290;SDS011;32023;44.444;26.006;2023-04-28T01:49:36;9.88;;;6.07;;
46290;SDS011;32023;44.444;26.006;2023-04-28T01:52:06;11.20;;;5.70;;
46290;SDS011;32023;44.444;26.006;2023-04-28T01:54:35;9.77;;;5.45;;
46290;SDS011;32023;44.444;26.006;2023-04-28T01:57:01;13.05;;;6.38;;
46290;SDS011;32023;44.444;26.006;2023-04-28T01:59:29;14.40;;;6.55;;
46290;SDS011;32023;44.444;26.006;2023-04-28T02:01:55;14.35;;;5.72;;
46290;SDS011;32023;44.444;26.006;2023-04-28T02:04:22;11.52;;;5.82;;
46290;SDS011;32023;44.444;26.006;2023-04-28T02:06:49;11.15;;;6.45;;
46290;SDS011;32023;44.444;26.006;2023-04-28T02:09:16;11.45;;;6.18;;
46290;SDS011;32023;44.444;26.006;2023-04-28T02:11:45;11.73;;;5.93;;
46290;SDS011;32023;44.444;26.006;2023-04-28T02:14:13;9.43;;;6.10;;
46290;SDS011;32023;44.444;26.006;2023-04-28T02:16:41;10.63;;;6.90;;
46290;SDS011;32023;44.444;26.006;2023-04-28T02:19:07;14.35;;;6.95;;
46290;SDS011;32023;44.444;26.006;2023-04-28T02:21:37;14.57;;;6.53;;
46290;SDS011;32023;44.444;26.006;2023-04-28T02:24:03;12.60;;;6.65;;
46290;SDS011;32023;44.444;26.006;2023-04-28T02:26:32;15.85;;;7.15;;
46290;SDS011;32023;44.444;26.006;2023-04-28T02:29:00;10.25;;;6.60;;
46290;SDS011;32023;44.444;26.006;2023-04-28T02:31:29;15.50;;;6.85;;
46290;SDS011;32023;44.444;26.006;2023-04-28T02:33:55;13.55;;;6.43;;
46290;SDS011;32023;44.444;26.006;2023-04-28T02:36:22;10.93;;;6.38;;
46290;SDS011;32023;44.444;26.006;2023-04-28T02:38:50;14.90;;;6.88;;
46290;SDS011;32023;44.444;26.006;2023-04-28T02:41:17;13.63;;;7.05;;
46290;SDS011;32023;44.444;26.006;2023-04-28T02:43:43;12.00;;;7.07;;
46290;SDS011;32023;44.444;26.006;2023-04-28T02:46:12;9.55;;;7.15;;
46290;SDS011;32023;44.444;26.006;2023-04-28T02:48:41;13.20;;;6.72;;
46290;SDS011;32023;44.444;26.006;2023-04-28T02:51:14;12.32;;;6.80;;
46290;SDS011;32023;44.444;26.006;2023-04-28T02:53:41;11.85;;;7.00;;
46290;SDS011;32023;44.444;26.006;2023-04-28T02:56:07;13.82;;;6.82;;
46290;SDS011;32023;44.444;26.006;2023-04-28T02:58:34;10.43;;;6.75;;
46290;SDS011;32023;44.444;26.006;2023-04-28T03:03:31;12.23;;;7.60;;
46290;SDS011;32023;44.444;26.006;2023-04-28T03:05:58;11.63;;;6.53;;
46290;SDS011;32023;44.444;26.006;2023-04-28T03:10:54;14.45;;;7.22;;
46290;SDS011;32023;44.444;26.006;2023-04-28T03:13:23;16.63;;;6.53;;
46290;SDS011;32023;44.444;26.006;2023-04-28T03:15:49;9.55;;;6.50;;
46290;SDS011;32023;44.444;26.006;2023-04-28T03:18:16;11.48;;;6.10;;
46290;SDS011;32023;44.444;26.006;2023-04-28T03:20:43;14.63;;;6.13;;
46290;SDS011;32023;44.444;26.006;2023-04-28T03:23:11;15.68;;;7.00;;
46290;SDS011;32023;44.444;26.006;2023-04-28T03:25:51;13.70;;;6.82;;
46290;SDS011;32023;44.444;26.006;2023-04-28T03:28:17;12.32;;;7.05;;
46290;SDS011;32023;44.444;26.006;2023-04-28T03:30:43;11.98;;;7.15;;
46290;SDS011;32023;44.444;26.006;2023-04-28T03:33:11;17.08;;;8.07;;
46290;SDS011;32023;44.444;26.006;2023-04-28T03:35:37;19.13;;;9.00;;
46290;SDS011;32023;44.444;26.006;2023-04-28T03:38:04;18.80;;;8.60;;
46290;SDS011;32023;44.444;26.006;2023-04-28T03:40:31;16.45;;;8.63;;
46290;SDS011;32023;44.444;26.006;2023-04-28T03:43:04;20.20;;;9.55;;
46290;SDS011;32023;44.444;26.006;2023-04-28T03:45:32;20.52;;;9.55;;
46290;SDS011;32023;44.444;26.006;2023-04-28T03:50:43;20.83;;;8.20;;
46290;SDS011;32023;44.444;26.006;2023-04-28T03:53:10;20.05;;;8.30;;
46290;SDS011;32023;44.444;26.006;2023-04-28T03:55:44;14.80;;;7.95;;
46290;SDS011;32023;44.444;26.006;2023-04-28T03:58:10;15.82;;;8.05;;
46290;SDS011;32023;44.444;26.006;2023-04-28T04:00:36;17.55;;;6.78;;
46290;SDS011;32023;44.444;26.006;2023-04-28T04:03:05;15.65;;;7.00;;
46290;SDS011;32023;44.444;26.006;2023-04-28T04:05:32;22.50;;;7.13;;
46290;SDS011;32023;44.444;26.006;2023-04-28T04:08:01;12.68;;;7.18;;
46290;SDS011;32023;44.444;26.006;2023-04-28T04:10:28;12.48;;;6.78;;
46290;SDS011;32023;44.444;26.006;2023-04-28T04:12:55;15.13;;;6.43;;
46290;SDS011;32023;44.444;26.006;2023-04-28T04:15:21;12.02;;;6.43;;
46290;SDS011;32023;44.444;26.006;2023-04-28T04:17:47;12.00;;;6.30;;
46290;SDS011;32023;44.444;26.006;2023-04-28T04:20:14;14.40;;;6.32;;
46290;SDS011;32023;44.444;26.006;2023-04-28T04:22:41;18.60;;;6.57;;
46290;SDS011;32023;44.444;26.006;2023-04-28T04:35:06;11.02;;;5.85;;
46290;SDS011;32023;44.444;26.006;2023-04-28T04:41:20;11.25;;;6.82;;
46290;SDS011;32023;44.444;26.006;2023-04-28T04:46:59;11.65;;;5.07;;
46290;SDS011;32023;44.444;26.006;2023-04-28T04:56:33;9.40;;;5.07;;
46290;SDS011;32023;44.444;26.006;2023-04-28T05:04:13;9.98;;;5.43;;
46290;SDS011;32023;44.444;26.006;2023-04-28T05:09:39;18.83;;;6.35;;
46290;SDS011;32023;44.444;26.006;2023-04-28T05:12:09;10.25;;;6.32;;
46290;SDS011;32023;44.444;26.006;2023-04-28T05:14:40;13.38;;;5.95;;
46290;SDS011;32023;44.444;26.006;2023-04-28T05:17:22;16.42;;;6.25;;
46290;SDS011;32023;44.444;26.006;2023-04-28T05:23:26;12.57;;;6.35;;
46290;SDS011;32023;44.444;26.006;2023-04-28T05:49:59;12.45;;;5.53;;
46290;SDS011;32023;44.444;26.006;2023-04-28T05:52:35;11.35;;;5.90;;
46290;SDS011;32023;44.444;26.006;2023-04-28T05:57:53;12.73;;;5.55;;
46290;SDS011;32023;44.444;26.006;2023-04-28T06:00:20;13.90;;;5.68;;
46290;SDS011;32023;44.444;26.006;2023-04-28T06:02:46;15.10;;;5.25;;
46290;SDS011;32023;44.444;26.006;2023-04-28T06:05:21;9.25;;;4.35;;
46290;SDS011;32023;44.444;26.006;2023-04-28T06:08:04;11.90;;;5.07;;
46290;SDS011;32023;44.444;26.006;2023-04-28T06:10:34;8.95;;;4.95;;
46290;SDS011;32023;44.444;26.006;2023-04-28T06:13:02;9.35;;;4.35;;
46290;SDS011;32023;44.444;26.006;2023-04-28T06:15:37;12.50;;;5.00;;
46290;SDS011;32023;44.444;26.006;2023-04-28T06:18:07;8.60;;;4.20;;
46290;SDS011;32023;44.444;26.006;2023-04-28T06:23:36;11.93;;;4.35;;
46290;SDS011;32023;44.444;26.006;2023-04-28T06:26:15;11.88;;;4.07;;
46290;SDS011;32023;44.444;26.006;2023-04-28T06:28:41;11.52;;;4.47;;
46290;SDS011;32023;44.444;26.006;2023-04-28T06:31:08;9.07;;;4.65;;
46290;SDS011;32023;44.444;26.006;2023-04-28T06:33:34;8.75;;;3.63;;
46290;SDS011;32023;44.444;26.006;2023-04-28T06:36:04;7.30;;;4.38;;
46290;SDS011;32023;44.444;26.006;2023-04-28T06:38:36;8.35;;;4.00;;
46290;SDS011;32023;44.444;26.006;2023-04-28T06:41:02;7.72;;;3.75;;
46290;SDS011;32023;44.444;26.006;2023-04-28T06:43:32;11.80;;;4.53;;
46290;SDS011;32023;44.444;26.006;2023-04-28T06:46:06;10.40;;;4.53;;
46290;SDS011;32023;44.444;26.006;2023-04-28T06:48:49;6.50;;;3.95;;
46290;SDS011;32023;44.444;26.006;2023-04-28T06:51:16;7.63;;;4.45;;
46290;SDS011;32023;44.444;26.006;2023-04-28T06:56:31;8.40;;;4.00;;
46290;SDS011;32023;44.444;26.006;2023-04-28T06:58:58;5.22;;;3.30;;
46290;SDS011;32023;44.444;26.006;2023-04-28T07:01:25;12.55;;;4.22;;
46290;SDS011;32023;44.444;26.006;2023-04-28T07:03:51;9.85;;;3.60;;
46290;SDS011;32023;44.444;26.006;2023-04-28T07:06:20;7.65;;;3.50;;
46290;SDS011;32023;44.444;26.006;2023-04-28T07:08:49;6.93;;;3.08;;
46290;SDS011;32023;44.444;26.006;2023-04-28T07:11:19;9.10;;;3.85;;
46290;SDS011;32023;44.444;26.006;2023-04-28T07:13:49;8.23;;;3.20;;
46290;SDS011;32023;44.444;26.006;2023-04-28T07:18:48;7.72;;;3.20;;
46290;SDS011;32023;44.444;26.006;2023-04-28T07:21:25;9.45;;;3.30;;
46290;SDS011;32023;44.444;26.006;2023-04-28T07:26:26;11.50;;;3.42;;
46290;SDS011;32023;44.444;26.006;2023-04-28T07:28:58;8.35;;;3.10;;
46290;SDS011;32023;44.444;26.006;2023-04-28T07:31:26;6.10;;;3.03;;
46290;SDS011;32023;44.444;26.006;2023-04-28T07:33:53;6.90;;;2.88;;
46290;SDS011;32023;44.444;26.006;2023-04-28T07:36:20;5.32;;;2.97;;
46290;SDS011;32023;44.444;26.006;2023-04-28T07:38:50;6.38;;;2.65;;
46290;SDS011;32023;44.444;26.006;2023-04-28T07:41:20;6.68;;;2.70;;
46290;SDS011;32023;44.444;26.006;2023-04-28T07:43:53;6.68;;;2.47;;
46290;SDS011;32023;44.444;26.006;2023-04-28T07:46:20;5.35;;;2.95;;
46290;SDS011;32023;44.444;26.006;2023-04-28T07:48:47;10.50;;;2.50;;
46290;SDS011;32023;44.444;26.006;2023-04-28T07:51:14;6.40;;;2.90;;
46290;SDS011;32023;44.444;26.006;2023-04-28T07:53:40;4.90;;;2.50;;
46290;SDS011;32023;44.444;26.006;2023-04-28T07:56:14;11.18;;;3.15;;
46290;SDS011;32023;44.444;26.006;2023-04-28T07:58:48;7.20;;;3.03;;
46290;SDS011;32023;44.444;26.006;2023-04-28T08:01:15;5.75;;;2.53;;
46290;SDS011;32023;44.444;26.006;2023-04-28T08:03:42;7.07;;;2.78;;
46290;SDS011;32023;44.444;26.006;2023-04-28T08:06:08;4.93;;;2.90;;
46290;SDS011;32023;44.444;26.006;2023-04-28T08:08:43;7.28;;;2.22;;
46290;SDS011;32023;44.444;26.006;2023-04-28T08:11:09;7.18;;;2.42;;
46290;SDS011;32023;44.444;26.006;2023-04-28T08:13:39;6.70;;;2.90;;
46290;SDS011;32023;44.444;26.006;2023-04-28T08:16:05;5.30;;;2.30;;
46290;SDS011;32023;44.444;26.006;2023-04-28T08:18:32;4.65;;;2.00;;
46290;SDS011;32023;44.444;26.006;2023-04-28T08:20:58;7.13;;;2.20;;
46290;SDS011;32023;44.444;26.006;2023-04-28T08:23:25;5.10;;;2.20;;
46290;SDS011;32023;44.444;26.006;2023-04-28T08:25:54;9.18;;;2.53;;
46290;SDS011;32023;44.444;26.006;2023-04-28T08:28:23;4.85;;;2.13;;
46290;SDS011;32023;44.444;26.006;2023-04-28T08:30:56;5.10;;;2.47;;
46290;SDS011;32023;44.444;26.006;2023-04-28T08:33:23;6.18;;;2.85;;
46290;SDS011;32023;44.444;26.006;2023-04-28T08:35:52;8.60;;;3.13;;
46290;SDS011;32023;44.444;26.006;2023-04-28T08:41:43;6.15;;;2.20;;
46290;SDS011;32023;44.444;26.006;2023-04-28T08:47:15;4.05;;;2.17;;
46290;SDS011;32023;44.444;26.006;2023-04-28T08:49:43;7.97;;;3.05;;
46290;SDS011;32023;44.444;26.006;2023-04-28T08:52:12;11.35;;;3.22;;
46290;SDS011;32023;44.444;26.006;2023-04-28T08:54:43;7.72;;;2.80;;
46290;SDS011;32023;44.444;26.006;2023-04-28T08:57:13;6.07;;;2.88;;
46290;SDS011;32023;44.444;26.006;2023-04-28T08:59:45;5.35;;;2.13;;
46290;SDS011;32023;44.444;26.006;2023-04-28T09:02:12;5.38;;;2.60;;
46290;SDS011;32023;44.444;26.006;2023-04-28T09:04:42;5.88;;;2.50;;
46290;SDS011;32023;44.444;26.006;2023-04-28T09:07:12;8.80;;;3.10;;
46290;SDS011;32023;44.444;26.006;2023-04-28T09:09:42;13.27;;;3.00;;
46290;SDS011;32023;44.444;26.006;2023-04-28T09:12:09;5.63;;;2.70;;
46290;SDS011;32023;44.444;26.006;2023-04-28T09:14:36;9.43;;;2.63;;
46290;SDS011;32023;44.444;26.006;2023-04-28T09:17:09;4.55;;;2.20;;
46290;SDS011;32023;44.444;26.006;2023-04-28T09:19:37;6.43;;;2.75;;
46290;SDS011;32023;44.444;26.006;2023-04-28T09:22:18;12.70;;;3.00;;
46290;SDS011;32023;44.444;26.006;2023-04-28T09:24:53;8.10;;;2.80;;
46290;SDS011;32023;44.444;26.006;2023-04-28T09:27:34;9.60;;;2.53;;
46290;SDS011;32023;44.444;26.006;2023-04-28T09:30:02;10.35;;;2.67;;
46290;SDS011;32023;44.444;26.006;2023-04-28T09:32:32;5.07;;;2.30;;
46290;SDS011;32023;44.444;26.006;2023-04-28T09:35:01;8.65;;;2.58;;
46290;SDS011;32023;44.444;26.006;2023-04-28T09:37:31;4.75;;;2.28;;
46290;SDS011;32023;44.444;26.006;2023-04-28T09:42:44;5.55;;;2.42;;
46290;SDS011;32023;44.444;26.006;2023-04-28T09:45:11;6.10;;;2.40;;
46290;SDS011;32023;44.444;26.006;2023-04-28T09:47:40;4.78;;;2.30;;
46290;SDS011;32023;44.444;26.006;2023-04-28T09:50:12;7.53;;;3.83;;
46290;SDS011;32023;44.444;26.006;2023-04-28T09:52:41;4.85;;;2.17;;
46290;SDS011;32023;44.444;26.006;2023-04-28T09:55:13;8.73;;;4.45;;
46290;SDS011;32023;44.444;26.006;2023-04-28T09:57:40;16.40;;;11.88;;
46290;SDS011;32023;44.444;26.006;2023-04-28T10:00:20;10.90;;;4.65;;
46290;SDS011;32023;44.444;26.006;2023-04-28T10:02:48;8.32;;;2.45;;
46290;SDS011;32023;44.444;26.006;2023-04-28T10:05:19;6.55;;;2.65;;
46290;SDS011;32023;44.444;26.006;2023-04-28T10:07:47;4.75;;;2.20;;
46290;SDS011;32023;44.444;26.006;2023-04-28T10:10:14;6.82;;;2.40;;
46290;SDS011;32023;44.444;26.006;2023-04-28T10:12:41;5.13;;;2.15;;
46290;SDS011;32023;44.444;26.006;2023-04-28T10:15:17;6.50;;;2.65;;
46290;SDS011;32023;44.444;26.006;2023-04-28T10:17:46;6.57;;;2.53;;
46290;SDS011;32023;44.444;26.006;2023-04-28T10:20:19;8.10;;;2.42;;
46290;SDS011;32023;44.444;26.006;2023-04-28T10:25:54;3.88;;;2.05;;
46290;SDS011;32023;44.444;26.006;2023-04-28T10:28:25;5.03;;;2.15;;
46290;SDS011;32023;44.444;26.006;2023-04-28T10:31:08;5.10;;;1.83;;
46290;SDS011;32023;44.444;26.006;2023-04-28T10:33:39;6.78;;;2.08;;
46290;SDS011;32023;44.444;26.006;2023-04-28T10:39:31;6.13;;;1.92;;
46290;SDS011;32023;44.444;26.006;2023-04-28T11:00:52;3.95;;;1.77;;
46290;SDS011;32023;44.444;26.006;2023-04-28T11:03:49;7.60;;;2.33;;
46290;SDS011;32023;44.444;26.006;2023-04-28T11:06:30;5.55;;;2.40;;
46290;SDS011;32023;44.444;26.006;2023-04-28T11:16:56;4.45;;;2.33;;
46290;SDS011;32023;44.444;26.006;2023-04-28T11:19:24;6.60;;;2.17;;
46290;SDS011;32023;44.444;26.006;2023-04-28T11:22:23;9.23;;;2.50;;
46290;SDS011;32023;44.444;26.006;2023-04-28T11:27:47;5.80;;;2.10;;
46290;SDS011;32023;44.444;26.006;2023-04-28T11:30:20;4.22;;;2.03;;
46290;SDS011;32023;44.444;26.006;2023-04-28T11:32:55;3.42;;;1.88;;
46290;SDS011;32023;44.444;26.006;2023-04-28T11:35:21;3.00;;;1.80;;
46290;SDS011;32023;44.444;26.006;2023-04-28T11:38:11;3.28;;;1.92;;
46290;SDS011;32023;44.444;26.006;2023-04-28T11:40:54;5.20;;;2.03;;
46290;SDS011;32023;44.444;26.006;2023-04-28T11:43:28;4.97;;;1.83;;
46290;SDS011;32023;44.444;26.006;2023-04-28T11:46:04;4.28;;;1.70;;
46290;SDS011;32023;44.444;26.006;2023-04-28T11:48:44;4.97;;;1.92;;
46290;SDS011;32023;44.444;26.006;2023-04-28T11:54:00;6.43;;;1.95;;
46290;SDS011;32023;44.444;26.006;2023-04-28T11:56:39;3.92;;;1.90;;
46290;SDS011;32023;44.444;26.006;2023-04-28T11:59:13;2.92;;;1.60;;
46290;SDS011;32023;44.444;26.006;2023-04-28T12:01:53;6.93;;;1.83;;
46290;SDS011;32023;44.444;26.006;2023-04-28T12:04:32;4.38;;;1.90;;
46290;SDS011;32023;44.444;26.006;2023-04-28T12:07:12;3.47;;;1.88;;
46290;SDS011;32023;44.444;26.006;2023-04-28T12:12:53;5.57;;;1.95;;
46290;SDS011;32023;44.444;26.006;2023-04-28T12:15:23;3.50;;;1.80;;
46290;SDS011;32023;44.444;26.006;2023-04-28T12:18:13;6.07;;;2.00;;
46290;SDS011;32023;44.444;26.006;2023-04-28T12:20:43;4.45;;;2.20;;
46290;SDS011;32023;44.444;26.006;2023-04-28T12:23:44;2.65;;;1.40;;
46290;SDS011;32023;44.444;26.006;2023-04-28T12:26:26;4.97;;;1.92;;
46290;SDS011;32023;44.444;26.006;2023-04-28T12:39:26;4.45;;;1.77;;
46290;SDS011;32023;44.444;26.006;2023-04-28T12:41:57;9.98;;;2.20;;
46290;SDS011;32023;44.444;26.006;2023-04-28T12:44:46;5.22;;;2.05;;
46290;SDS011;32023;44.444;26.006;2023-04-28T12:47:15;4.68;;;2.22;;
46290;SDS011;32023;44.444;26.006;2023-04-28T12:49:44;5.30;;;2.00;;
46290;SDS011;32023;44.444;26.006;2023-04-28T12:52:13;3.92;;;1.42;;
46290;SDS011;32023;44.444;26.006;2023-04-28T12:54:40;5.32;;;2.05;;
46290;SDS011;32023;44.444;26.006;2023-04-28T12:57:17;3.65;;;1.73;;
46290;SDS011;32023;44.444;26.006;2023-04-28T12:59:44;4.40;;;1.52;;
46290;SDS011;32023;44.444;26.006;2023-04-28T13:05:05;7.28;;;1.90;;
46290;SDS011;32023;44.444;26.006;2023-04-28T13:07:35;6.68;;;1.95;;
46290;SDS011;32023;44.444;26.006;2023-04-28T13:10:02;7.43;;;2.10;;
46290;SDS011;32023;44.444;26.006;2023-04-28T13:12:28;4.07;;;1.92;;
46290;SDS011;32023;44.444;26.006;2023-04-28T13:14:55;5.32;;;2.05;;
46290;SDS011;32023;44.444;26.006;2023-04-28T13:17:22;8.57;;;2.08;;
46290;SDS011;32023;44.444;26.006;2023-04-28T13:19:51;2.95;;;1.90;;
46290;SDS011;32023;44.444;26.006;2023-04-28T13:22:17;9.10;;;2.35;;
46290;SDS011;32023;44.444;26.006;2023-04-28T13:24:45;11.95;;;1.80;;
46290;SDS011;32023;44.444;26.006;2023-04-28T13:27:13;6.53;;;1.75;;
46290;SDS011;32023;44.444;26.006;2023-04-28T13:29:39;4.55;;;2.30;;
46290;SDS011;32023;44.444;26.006;2023-04-28T13:32:07;4.95;;;2.05;;
46290;SDS011;32023;44.444;26.006;2023-04-28T13:34:38;7.72;;;2.33;;
46290;SDS011;32023;44.444;26.006;2023-04-28T13:37:17;3.85;;;1.80;;
46290;SDS011;32023;44.444;26.006;2023-04-28T13:39:49;5.68;;;1.83;;
46290;SDS011;32023;44.444;26.006;2023-04-28T13:42:23;5.03;;;2.22;;
46290;SDS011;32023;44.444;26.006;2023-04-28T13:44:58;6.32;;;1.73;;
46290;SDS011;32023;44.444;26.006;2023-04-28T13:47:35;3.75;;;1.90;;
46290;SDS011;32023;44.444;26.006;2023-04-28T13:50:05;4.18;;;2.05;;
46290;SDS011;32023;44.444;26.006;2023-04-28T13:52:34;7.50;;;1.92;;
46290;SDS011;32023;44.444;26.006;2023-04-28T13:55:19;4.97;;;1.98;;
46290;SDS011;32023;44.444;26.006;2023-04-28T13:57:52;6.57;;;2.22;;
46290;SDS011;32023;44.444;26.006;2023-04-28T14:00:25;8.48;;;2.33;;
46290;SDS011;32023;44.444;26.006;2023-04-28T14:02:55;4.00;;;2.17;;
46290;SDS011;32023;44.444;26.006;2023-04-28T14:05:21;8.98;;;2.47;;
46290;SDS011;32023;44.444;26.006;2023-04-28T14:07:52;4.13;;;1.95;;
46290;SDS011;32023;44.444;26.006;2023-04-28T14:10:22;4.55;;;2.05;;
46290;SDS011;32023;44.444;26.006;2023-04-28T14:12:50;6.65;;;2.17;;
46290;SDS011;32023;44.444;26.006;2023-04-28T14:15:27;4.20;;;1.95;;
46290;SDS011;32023;44.444;26.006;2023-04-28T14:17:57;8.52;;;2.75;;
46290;SDS011;32023;44.444;26.006;2023-04-28T14:20:24;7.60;;;2.75;;
46290;SDS011;32023;44.444;26.006;2023-04-28T14:22:54;6.90;;;2.33;;
46290;SDS011;32023;44.444;26.006;2023-04-28T14:25:21;4.65;;;2.08;;
46290;SDS011;32023;44.444;26.006;2023-04-28T14:27:49;7.07;;;2.13;;
46290;SDS011;32023;44.444;26.006;2023-04-28T14:30:16;4.65;;;1.88;;
46290;SDS011;32023;44.444;26.006;2023-04-28T14:32:46;4.72;;;1.92;;
46290;SDS011;32023;44.444;26.006;2023-04-28T14:35:13;10.90;;;2.53;;
46290;SDS011;32023;44.444;26.006;2023-04-28T14:37:40;6.47;;;2.13;;
46290;SDS011;32023;44.444;26.006;2023-04-28T14:40:09;6.25;;;2.53;;
46290;SDS011;32023;44.444;26.006;2023-04-28T14:42:53;5.57;;;2.22;;
46290;SDS011;32023;44.444;26.006;2023-04-28T14:45:20;3.90;;;2.10;;
46290;SDS011;32023;44.444;26.006;2023-04-28T14:47:51;3.78;;;2.05;;
46290;SDS011;32023;44.444;26.006;2023-04-28T14:50:17;6.63;;;2.33;;
46290;SDS011;32023;44.444;26.006;2023-04-28T14:52:49;6.20;;;2.28;;
46290;SDS011;32023;44.444;26.006;2023-04-28T14:55:18;5.10;;;2.30;;
46290;SDS011;32023;44.444;26.006;2023-04-28T14:57:47;6.82;;;2.33;;
46290;SDS011;32023;44.444;26.006;2023-04-28T15:00:18;3.17;;;1.65;;
46290;SDS011;32023;44.444;26.006;2023-04-28T15:02:45;8.35;;;2.33;;
46290;SDS011;32023;44.444;26.006;2023-04-28T15:05:45;5.63;;;2.30;;
46290;SDS011;32023;44.444;26.006;2023-04-28T15:08:41;8.10;;;2.17;;
46290;SDS011;32023;44.444;26.006;2023-04-28T15:11:08;9.15;;;2.47;;
46290;SDS011;32023;44.444;26.006;2023-04-28T15:13:34;8.02;;;2.05;;
46290;SDS011;32023;44.444;26.006;2023-04-28T15:16:03;7.40;;;2.05;;
46290;SDS011;32023;44.444;26.006;2023-04-28T15:18:41;4.28;;;2.42;;
46290;SDS011;32023;44.444;26.006;2023-04-28T15:21:18;6.40;;;2.83;;
46290;SDS011;32023;44.444;26.006;2023-04-28T15:23:57;6.38;;;2.33;;
46290;SDS011;32023;44.444;26.006;2023-04-28T15:26:33;4.20;;;2.03;;
46290;SDS011;32023;44.444;26.006;2023-04-28T15:29:09;9.55;;;2.40;;
46290;SDS011;32023;44.444;26.006;2023-04-28T15:31:35;4.70;;;2.42;;
46290;SDS011;32023;44.444;26.006;2023-04-28T15:34:02;7.25;;;2.88;;
46290;SDS011;32023;44.444;26.006;2023-04-28T15:36:28;6.30;;;2.40;;
46290;SDS011;32023;44.444;26.006;2023-04-28T15:38:54;7.15;;;2.30;;
46290;SDS011;32023;44.444;26.006;2023-04-28T15:41:23;5.43;;;2.35;;
46290;SDS011;32023;44.444;26.006;2023-04-28T15:43:50;8.80;;;2.25;;
46290;SDS011;32023;44.444;26.006;2023-04-28T15:46:16;9.07;;;1.95;;
46290;SDS011;32023;44.444;26.006;2023-04-28T15:51:43;9.32;;;2.15;;
46290;SDS011;32023;44.444;26.006;2023-04-28T15:54:09;10.68;;;2.30;;
46290;SDS011;32023;44.444;26.006;2023-04-28T15:56:56;6.25;;;2.20;;
46290;SDS011;32023;44.444;26.006;2023-04-28T15:59:24;3.53;;;1.98;;
46290;SDS011;32023;44.444;26.006;2023-04-28T16:02:01;3.10;;;2.00;;
46290;SDS011;32023;44.444;26.006;2023-04-28T16:04:29;6.70;;;2.33;;
46290;SDS011;32023;44.444;26.006;2023-04-28T16:06:58;3.65;;;2.10;;
46290;SDS011;32023;44.444;26.006;2023-04-28T16:09:29;5.65;;;2.10;;
46290;SDS011;32023;44.444;26.006;2023-04-28T16:11:58;4.03;;;1.88;;
46290;SDS011;32023;44.444;26.006;2023-04-28T16:14:27;6.18;;;2.28;;
46290;SDS011;32023;44.444;26.006;2023-04-28T16:16:56;6.63;;;2.25;;
46290;SDS011;32023;44.444;26.006;2023-04-28T16:22:08;5.47;;;2.13;;
46290;SDS011;32023;44.444;26.006;2023-04-28T16:24:39;4.43;;;2.25;;
46290;SDS011;32023;44.444;26.006;2023-04-28T16:27:08;4.15;;;2.47;;
46290;SDS011;32023;44.444;26.006;2023-04-28T16:29:35;10.30;;;2.47;;
46290;SDS011;32023;44.444;26.006;2023-04-28T16:32:02;6.57;;;2.00;;
46290;SDS011;32023;44.444;26.006;2023-04-28T16:34:31;8.65;;;2.50;;
46290;SDS011;32023;44.444;26.006;2023-04-28T16:37:01;6.25;;;1.98;;
46290;SDS011;32023;44.444;26.006;2023-04-28T16:39:27;8.88;;;2.25;;
46290;SDS011;32023;44.444;26.006;2023-04-28T16:41:55;5.82;;;2.30;;
46290;SDS011;32023;44.444;26.006;2023-04-28T16:44:25;6.05;;;2.20;;
46290;SDS011;32023;44.444;26.006;2023-04-28T16:46:52;11.30;;;3.10;;
46290;SDS011;32023;44.444;26.006;2023-04-28T16:49:19;9.68;;;4.05;;
46290;SDS011;32023;44.444;26.006;2023-04-28T16:54:25;13.52;;;5.53;;
46290;SDS011;32023;44.444;26.006;2023-04-28T16:56:53;13.23;;;4.32;;
46290;SDS011;32023;44.444;26.006;2023-04-28T16:59:19;10.00;;;3.75;;
46290;SDS011;32023;44.444;26.006;2023-04-28T17:01:46;15.10;;;3.63;;
46290;SDS011;32023;44.444;26.006;2023-04-28T17:04:13;9.05;;;3.58;;
46290;SDS011;32023;44.444;26.006;2023-04-28T17:06:39;9.60;;;3.75;;
46290;SDS011;32023;44.444;26.006;2023-04-28T17:09:05;11.60;;;4.10;;
46290;SDS011;32023;44.444;26.006;2023-04-28T17:11:33;11.15;;;5.82;;
46290;SDS011;32023;44.444;26.006;2023-04-28T17:14:03;18.83;;;7.70;;
46290;SDS011;32023;44.444;26.006;2023-04-28T17:16:31;10.85;;;6.82;;
46290;SDS011;32023;44.444;26.006;2023-04-28T17:18:58;9.23;;;4.72;;
46290;SDS011;32023;44.444;26.006;2023-04-28T17:21:25;10.73;;;4.97;;
46290;SDS011;32023;44.444;26.006;2023-04-28T17:23:56;13.50;;;4.75;;
46290;SDS011;32023;44.444;26.006;2023-04-28T17:26:26;12.38;;;4.00;;
46290;SDS011;32023;44.444;26.006;2023-04-28T17:28:54;9.95;;;4.05;;